Terminal Aerodrome Forecast
Issued by NWS

Home | Current Version | Previous Version | Text Only | Print | Product List | Glossary On
Versions: 1 2 3 4 5 6 7 8 9 10 11 12 13 14 15 16 17 18 19 20 21 22 23 24 25 26 27 28 29 30 31 32 33 34 35 36 37 38 39 40 41 42 43 44 45 46 47 48 49 50
000
FTPA31 PHFO 051100
TAFITO
TAF
PHTO 051136Z 0512/0612 33006KT P6SM VCSH SCT025 BKN040
      TEMPO 0512/0516 3SM -SHRA BKN025
     FM052000 36016G26KT P6SM VCSH SCT025 BKN050
     FM060500 33008KT P6SM VCSH SCT025 BKN050=

USA.gov is the U.S. government's official web portal to all federal, state and local government web resources and services.